Share

Sitka, AK

Sitka Rocky Gutierrez (PASI) Elev 20 ft | 57.05 °N, 135.36 °W | Change Station

Current weather conditions updated 7 minutes ago

Overcast
Overcast
49 °F
Feels Like 49 °F
N
14
Wind Variable Wind from ESE
Sunrise 5:39 AM
Sunset 8:22 PM
Moon Waning Gibbous

Tomorrow is forecast to be Cooler than today. Showers ending by midday.

Pressure 29.74 in
Visibility 10.0 miles
Clouds Few 3000 ft
Overcast 9500 ft
Dew Point 36 °F
Humidity 61%
Rainfall 0.07 in
Snow Depth Not available.
UV 1 out of 16
Pollen Not available.
Air Quality Not available.
Flu Activity Sporadic
METAR PASI 202353Z 12012KT 10SM FEW030 OVC095 09/02 A2974 RMK AO2 SLP071 T00940022 10117 20083 58000

More Conditions Fewer Conditions

Pressure 29.74 in
Visibility 10.0 miles
Clouds Few 3000 ft
Overcast 9500 ft
Dew Point 36 °F
Humidity 61%
Rainfall 0.07 in
Snow Depth Not available.
UV 1 out of 16
Pollen Not available.
Air Quality Not available.
Flu Activity Sporadic
METAR PASI 202353Z 12012KT 10SM FEW030 OVC095 09/02 A2974 RMK AO2 SLP071 T00940022 10117 20083 58000

More Conditions Fewer Conditions

10-Day Weather Forecast

Almanac

Astronomy

Apr. 20, 2014 Rise Set
Actual Time 5:39 AM AKDT 8:22 PM AKDT
Civil Twilight 4:56 AM AKDT 9:05 PM AKDT
Nautical Twilight 4:00 AM AKDT 10:02 PM AKDT
Astronomical Twilight 2:45 AM AKDT 11:19 PM AKDT
Moon 1:33 AM AKDT (4/20) 9:44 AM AKDT (4/20)
Length of Visible Light 16h 08m
Length of Day
14h 42m
Tomorrow will be 4m 42s longer.
Waning Gibbous, 65% of the Moon is Illuminated
Today
Waning Gibbous
Apr 22
Last Quarter
Apr 29
New
May 6
First Quarter
May 14
Full

Today's Extremes

State Highs State Lows

Community

  • Easter Dance
    Easter Dance
  • spring skiing mount Baker WA
    spring skiing mount Baker WA
  • Morning Sun
    Morning Sun
  • Happy Easter
    Happy Easter
  • after rain
    after rain

WunderPhotos

Upload Photos

1,703,440 photos uploaded!

WunderBlogs® & News

Nearby

Snow Depth

Station Depth Elevation
Long Lake 96 in 820 ft
Moraine 8 in 2100 ft
Grandview 35 in 1100 ft
Grouse Creek Divide 24 in 700 ft
Nuka Glacier 32 in 1250 ft

Coastal Water Temperatures

Place Temperature
No Stations Reporting

Earthquake Activity

City Distance Mag. Time & Date
No recent earthquake activity has been reported nearby.
Minimum magnitude displayed is 2.5.

Nearby Weather Stations

Station Location Temp. Dew Point Humidity Wind Precip. Elev Updated Type
CRN USGS SITKA MAGNETIC SITKA 1 NE AK , Sitka, AK 50 °F - - North  at  - 0.00 in / hr 78 ft 3:15 PM AKDT MADIS

Show More Stations Show Fewer Stations

What do you think?

We're not finished. Please let us know what you like, what you don't like, and what you are still missing.